Time;durP1;ratioP1;P1;durP2;ratioP2;P2;SDS_P1;SDS_P2;PMS_P1;PMS_P2;Temp;Humidity;BMP_temperature;BMP_pressure;BME280_temperature;BME280_humidity;BME280_pressure;Samples;Min_cycle;Max_cycle;Signal;HPM_P1;HPM_P2
2022/12/18 00:02:13;;;;;;;19.43;8.67;;;-4.70;99.90;;;;;;5032953;28;20215;-67
2022/12/18 00:04:39;;;;;;;12.33;7.90;;;-4.70;99.90;;;;;;5024893;28;20184;-67
2022/12/18 00:07:05;;;;;;;14.47;9.03;;;-4.80;99.90;;;;;;5036838;28;20554;-66
2022/12/18 00:09:30;;;;;;;14.50;9.03;;;-4.80;99.90;;;;;;5032641;28;20160;-67
2022/12/18 00:11:56;;;;;;;23.80;9.50;;;-4.70;99.90;;;;;;5032659;28;20250;-66
2022/12/18 00:14:21;;;;;;;19.60;8.03;;;-4.80;99.90;;;;;;5026836;23;20308;-70
2022/12/18 00:16:47;;;;;;;18.33;10.23;;;-4.80;99.90;;;;;;4994095;28;20275;-71
2022/12/18 00:19:14;;;;;;;20.10;10.17;;;-4.80;99.90;;;;;;4993686;28;20224;-69
2022/12/18 00:21:40;;;;;;;16.37;9.17;;;-4.90;99.90;;;;;;4994183;28;20198;-71
2022/12/18 00:24:06;;;;;;;19.85;15.05;;;-4.80;99.90;;;;;;4994166;28;20456;-70
2022/12/18 00:26:33;;;;;;;25.77;9.87;;;-4.70;99.90;;;;;;4994649;28;20180;-69
2022/12/18 00:29:01;;;;;;;22.77;10.90;;;-4.70;99.90;;;;;;4995016;28;20831;-70
2022/12/18 00:31:26;;;;;;;21.88;10.13;;;-4.60;99.90;;;;;;4995530;28;20417;-70
2022/12/18 00:33:55;;;;;;;21.53;9.87;;;-4.60;99.90;;;;;;4994790;28;20208;-69
2022/12/18 00:36:23;;;;;;;25.37;9.30;;;-4.60;99.90;;;;;;4994706;28;20412;-69
2022/12/18 00:38:49;;;;;;;19.63;8.43;;;-4.70;99.90;;;;;;4993853;28;20773;-70
2022/12/18 00:42:55;;;;;;;15.87;9.37;;;-4.70;99.90;;;;;;4994178;28;20499;-69
2022/12/18 00:44:03;;;;;;;25.60;10.43;;;-4.60;99.90;;;;;;4992767;28;20683;-69
2022/12/18 00:46:28;;;;;;;27.57;12.23;;;-4.80;99.90;;;;;;4993875;28;20435;-71
2022/12/18 00:48:54;;;;;;;20.53;11.63;;;-4.80;99.90;;;;;;4994202;28;21002;-69
2022/12/18 00:51:20;;;;;;;14.90;8.43;;;-4.80;99.90;;;;;;4993945;28;20173;-69
2022/12/18 00:53:45;;;;;;;15.60;8.70;;;-4.80;99.90;;;;;;4993810;28;20271;-69
2022/12/18 00:56:11;;;;;;;16.60;9.00;;;-4.70;99.90;;;;;;4993754;28;20219;-69
2022/12/18 00:58:36;;;;;;;25.97;10.80;;;-4.70;99.90;;;;;;4993733;28;20176;-69
2022/12/18 01:01:04;;;;;;;28.37;10.23;;;-4.70;99.90;;;;;;4993696;28;20256;-69
2022/12/18 01:03:30;;;;;;;25.53;8.27;;;-4.70;99.90;;;;;;4993440;28;20199;-69
2022/12/18 01:05:56;;;;;;;25.30;11.10;;;-4.80;99.90;;;;;;5000827;28;20984;-68
2022/12/18 01:08:22;;;;;;;22.83;13.33;;;-4.90;99.90;;;;;;4993997;28;20416;-69
2022/12/18 01:10:47;;;;;;;17.50;9.60;;;-5.00;99.90;;;;;;4996056;28;20169;-69
2022/12/18 01:13:13;;;;;;;17.63;9.17;;;-5.00;99.90;;;;;;4993565;28;20211;-69
2022/12/18 01:15:39;;;;;;;24.87;9.33;;;-4.90;99.90;;;;;;4993498;28;20619;-70
2022/12/18 01:18:06;;;;;;;15.77;9.70;;;-5.00;99.90;;;;;;4993150;28;20525;-69
2022/12/18 01:20:32;;;;;;;17.60;9.57;;;-5.00;99.90;;;;;;4993209;28;20416;-69
2022/12/18 01:22:58;;;;;;;18.20;10.97;;;-4.90;99.90;;;;;;4993925;28;20420;-69
2022/12/18 01:25:23;;;;;;;17.00;9.67;;;-4.90;99.90;;;;;;4993719;28;20690;-70
2022/12/18 01:27:49;;;;;;;23.10;12.90;;;-4.90;99.90;;;;;;4992779;28;20184;-69
2022/12/18 01:30:14;;;;;;;20.90;8.87;;;-4.90;99.90;;;;;;4991387;28;20169;-69
2022/12/18 01:32:40;;;;;;;28.27;10.77;;;-4.90;99.90;;;;;;4975347;28;20648;-69
2022/12/18 01:35:07;;;;;;;22.80;9.40;;;-4.90;99.90;;;;;;4992925;28;20631;-69
2022/12/18 01:37:32;;;;;;;21.52;11.48;;;-4.80;99.90;;;;;;4997066;28;20473;-69
2022/12/18 01:39:58;;;;;;;25.63;8.37;;;-4.90;99.90;;;;;;4992670;28;20189;-69
2022/12/18 01:42:25;;;;;;;20.53;11.07;;;-4.90;99.90;;;;;;4992839;28;20546;-69
2022/12/18 01:44:58;;;;;;;9.10;6.20;;;-4.90;99.90;;;;;;4992444;28;20214;-69
2022/12/18 01:47:33;;;;;;;18.53;11.10;;;-4.90;99.90;;;;;;4992376;28;20401;-69
2022/12/18 01:50:06;;;;;;;21.58;10.13;;;-4.90;99.90;;;;;;4996782;28;20723;-69
2022/12/18 01:52:33;;;;;;;15.33;10.93;;;-5.00;99.90;;;;;;4999577;28;20173;-71
2022/12/18 01:55:01;;;;;;;21.13;9.30;;;-5.00;99.90;;;;;;4992646;28;20468;-68
2022/12/18 01:57:28;;;;;;;16.77;9.17;;;-4.90;99.90;;;;;;4997303;28;20812;-69
2022/12/18 01:59:57;;;;;;;16.97;8.70;;;-4.90;99.90;;;;;;4987809;28;20420;-69
2022/12/18 02:02:23;;;;;;;22.87;11.53;;;-4.90;99.90;;;;;;4992210;28;20502;-69
2022/12/18 02:04:49;;;;;;;21.00;10.57;;;-4.80;99.90;;;;;;4992163;28;20969;-68
2022/12/18 02:07:31;;;;;;;18.33;10.80;;;-4.90;99.90;;;;;;4992946;28;20739;-69
2022/12/18 02:10:02;;;;;;;27.63;10.07;;;-5.00;99.90;;;;;;4992927;28;20214;-69
2022/12/18 02:12:47;;;;;;;19.98;11.15;;;-5.00;99.90;;;;;;4994171;28;20462;-69
2022/12/18 02:15:23;;;;;;;17.07;9.67;;;-5.10;99.90;;;;;;4979245;28;20193;-70
2022/12/18 02:18:05;;;;;;;20.67;10.33;;;-5.00;99.90;;;;;;4993284;28;20408;-69
2022/12/18 02:20:40;;;;;;;19.47;9.20;;;-5.10;99.90;;;;;;4993144;28;20518;-67
2022/12/18 02:23:27;;;;;;;14.07;9.57;;;-5.10;99.90;;;;;;4992582;28;20482;-69
2022/12/18 02:26:13;;;;;;;21.73;10.50;;;-5.10;99.90;;;;;;4987019;28;20417;-69
2022/12/18 02:28:49;;;;;;;23.97;11.80;;;-5.10;99.90;;;;;;4989210;28;20807;-69
2022/12/18 02:31:21;;;;;;;17.63;10.23;;;-5.20;99.90;;;;;;4999516;28;20403;-68
2022/12/18 02:33:48;;;;;;;28.48;11.85;;;-5.20;99.90;;;;;;4991209;28;20435;-69
2022/12/18 02:36:16;;;;;;;25.50;10.43;;;-5.30;99.90;;;;;;4997620;28;20173;-69
2022/12/18 02:38:44;;;;;;;17.15;10.88;;;-5.30;99.90;;;;;;4991695;28;20187;-69
2022/12/18 02:41:11;;;;;;;29.15;13.45;;;-5.40;99.90;;;;;;4991725;28;20177;-69
2022/12/18 02:43:37;;;;;;;28.65;13.25;;;-5.40;99.90;;;;;;4993701;28;20600;-69
2022/12/18 02:46:25;;;;;;;13.23;9.47;;;-5.40;99.90;;;;;;4991451;28;20243;-68
2022/12/18 02:48:57;;;;;;;25.60;13.20;;;-5.40;99.90;;;;;;4991795;28;20192;-69
2022/12/18 02:51:55;;;;;;;24.15;10.48;;;-5.30;99.90;;;;;;4995353;28;20169;-69
2022/12/18 02:54:31;;;;;;;28.55;12.30;;;-5.40;99.90;;;;;;4991697;28;20209;-69
2022/12/18 02:57:05;;;;;;;26.13;13.90;;;-5.50;99.90;;;;;;4991887;28;20173;-70
2022/12/18 02:59:37;;;;;;;28.38;15.07;;;-5.70;99.90;;;;;;4993127;28;20575;-71
2022/12/18 03:02:19;;;;;;;26.85;13.00;;;-5.60;99.90;;;;;;4992490;28;20196;-69
2022/12/18 03:04:57;;;;;;;27.65;11.25;;;-5.70;99.90;;;;;;4997054;28;20265;-70
2022/12/18 03:07:36;;;;;;;22.17;14.05;;;-5.80;99.90;;;;;;4994168;28;20181;-71
2022/12/18 03:10:03;;;;;;;22.90;11.45;;;-5.70;99.90;;;;;;5000806;28;20177;-70
2022/12/18 03:12:37;;;;;;;26.23;16.42;;;-5.80;99.90;;;;;;4997391;28;20193;-70
2022/12/18 03:15:18;;;;;;;20.42;11.93;;;-5.70;99.90;;;;;;4994066;28;20216;-69
2022/12/18 03:17:54;;;;;;;25.95;12.05;;;-5.80;99.90;;;;;;5000099;28;20553;-69
2022/12/18 03:20:23;;;;;;;37.10;13.73;;;-5.70;99.90;;;;;;4993945;28;20275;-69
2022/12/18 03:22:53;;;;;;;21.08;10.73;;;-5.70;99.90;;;;;;4994136;28;20247;-69
2022/12/18 03:25:20;;;;;;;18.58;12.05;;;-5.70;99.90;;;;;;4994294;28;20559;-69
2022/12/18 03:27:53;;;;;;;29.05;14.40;;;-5.60;99.90;;;;;;4999557;28;20273;-69
2022/12/18 03:30:19;;;;;;;35.70;15.48;;;-5.60;99.90;;;;;;4994647;28;20180;-69
2022/12/18 03:33:06;;;;;;;28.47;14.83;;;-5.50;99.90;;;;;;4997011;28;20534;-69
2022/12/18 03:35:39;;;;;;;30.80;14.77;;;-5.50;99.90;;;;;;4994693;28;20255;-68
2022/12/18 03:38:05;;;;;;;23.48;14.90;;;-5.50;99.90;;;;;;4997979;28;20435;-69
2022/12/18 03:40:40;;;;;;;43.17;15.57;;;-5.50;99.90;;;;;;4994706;28;20705;-69
2022/12/18 03:43:20;;;;;;;29.97;15.00;;;-5.40;99.90;;;;;;4993515;28;20666;-70
2022/12/18 03:45:55;;;;;;;37.10;14.45;;;-5.40;99.90;;;;;;4986288;28;20474;-70
2022/12/18 03:48:32;;;;;;;29.73;12.05;;;-5.40;99.90;;;;;;4981655;28;20199;-69
2022/12/18 03:51:05;;;;;;;25.33;14.90;;;-5.40;99.90;;;;;;4993567;28;20188;-70
2022/12/18 03:53:52;;;;;;;25.73;12.93;;;-5.40;99.90;;;;;;4996861;28;20188;-69
2022/12/18 03:56:20;;;;;;;31.73;13.23;;;-5.40;99.90;;;;;;4993440;28;20978;-70
2022/12/18 03:58:48;;;;;;;34.33;13.35;;;-5.30;99.90;;;;;;4993540;28;20276;-70
2022/12/18 04:01:16;;;;;;;28.17;12.20;;;-5.40;99.90;;;;;;4998477;28;20180;-69
2022/12/18 04:03:44;;;;;;;29.60;13.02;;;-5.40;99.90;;;;;;5000784;28;20428;-69
2022/12/18 04:06:10;;;;;;;28.85;16.70;;;-5.40;99.90;;;;;;4993419;28;20177;-69
2022/12/18 04:08:36;;;;;;;18.50;10.23;;;-5.50;99.90;;;;;;4995986;28;20246;-69
2022/12/18 04:11:02;;;;;;;27.30;12.90;;;-5.40;99.90;;;;;;5004211;28;20690;-69
2022/12/18 04:13:31;;;;;;;36.90;10.35;;;-5.50;99.90;;;;;;4958718;28;1101267;-69
2022/12/18 04:15:57;;;;;;;25.33;11.73;;;-5.40;99.90;;;;;;4994182;28;20184;-69
2022/12/18 04:18:22;;;;;;;20.17;10.80;;;-5.40;99.90;;;;;;4993252;28;20739;-68
2022/12/18 04:20:48;;;;;;;26.03;12.73;;;-5.60;99.90;;;;;;4994092;28;20184;-68
2022/12/18 04:23:13;;;;;;;27.30;14.93;;;-5.70;99.90;;;;;;4993983;28;20299;-69
2022/12/18 04:25:39;;;;;;;18.37;10.40;;;-5.70;99.90;;;;;;4993967;28;20201;-70
2022/12/18 04:28:05;;;;;;;20.03;10.20;;;-5.70;99.90;;;;;;4993967;28;20507;-69
2022/12/18 04:30:30;;;;;;;22.00;11.50;;;-5.60;99.90;;;;;;4993868;28;20540;-68
2022/12/18 04:32:56;;;;;;;22.27;11.70;;;-5.60;99.90;;;;;;4993649;28;20615;-69
2022/12/18 04:35:21;;;;;;;24.00;8.93;;;-5.50;99.90;;;;;;4994822;28;20177;-69
2022/12/18 04:37:47;;;;;;;25.33;11.97;;;-5.50;99.90;;;;;;4993851;28;20251;-70
2022/12/18 04:40:12;;;;;;;19.23;11.43;;;-5.70;99.90;;;;;;4993831;28;20216;-69
2022/12/18 04:42:40;;;;;;;26.40;11.73;;;-5.80;99.90;;;;;;4993788;28;20268;-69
2022/12/18 04:45:06;;;;;;;20.77;7.80;;;-5.80;99.90;;;;;;4998105;28;20295;-70
2022/12/18 04:47:32;;;;;;;16.73;10.13;;;-5.60;99.90;;;;;;4994405;28;20732;-70
2022/12/18 04:49:58;;;;;;;24.47;11.43;;;-5.60;99.90;;;;;;4995170;28;20176;-69
2022/12/18 04:52:23;;;;;;;18.87;11.90;;;-5.70;99.90;;;;;;4994340;28;20474;-69
2022/12/18 04:54:49;;;;;;;20.73;10.77;;;-5.70;99.90;;;;;;4996540;28;20275;-69
2022/12/18 04:57:15;;;;;;;20.70;12.73;;;-5.60;99.90;;;;;;4993292;28;20180;-69
2022/12/18 04:59:40;;;;;;;22.20;12.93;;;-5.70;99.90;;;;;;4993763;28;20263;-69
2022/12/18 05:02:06;;;;;;;26.63;9.30;;;-5.80;99.90;;;;;;4997754;28;20228;-69
2022/12/18 05:04:31;;;;;;;24.63;10.17;;;-5.70;99.90;;;;;;4993106;28;20200;-69
2022/12/18 05:06:57;;;;;;;20.33;8.97;;;-5.80;99.90;;;;;;4992817;28;20716;-69
2022/12/18 05:09:23;;;;;;;24.07;10.37;;;-5.80;99.90;;;;;;4997970;28;20176;-69
2022/12/18 05:11:49;;;;;;;22.77;12.60;;;-5.80;99.90;;;;;;5000627;28;20180;-69
2022/12/18 05:14:15;;;;;;;25.97;11.90;;;-5.80;99.90;;;;;;4994719;28;20682;-69
2022/12/18 05:16:40;;;;;;;26.20;11.67;;;-5.70;99.90;;;;;;4993132;28;20179;-69
2022/12/18 05:19:06;;;;;;;13.93;10.47;;;-5.80;99.90;;;;;;4993198;28;20420;-69
2022/12/18 05:21:31;;;;;;;20.70;8.60;;;-5.70;99.90;;;;;;4993247;28;20173;-69
2022/12/18 05:23:57;;;;;;;22.03;9.47;;;-5.70;99.90;;;;;;4975329;28;20201;-69
2022/12/18 05:26:23;;;;;;;24.40;10.47;;;-5.70;99.90;;;;;;4992857;28;20255;-69
2022/12/18 05:28:48;;;;;;;13.77;8.77;;;-5.60;99.90;;;;;;4993080;28;20699;-69
2022/12/18 05:31:14;;;;;;;17.87;9.73;;;-5.70;99.90;;;;;;4995319;28;20256;-69
2022/12/18 05:33:40;;;;;;;26.20;11.60;;;-5.80;99.90;;;;;;4999931;28;20344;-69
2022/12/18 05:36:07;;;;;;;22.03;9.47;;;-5.70;99.90;;;;;;4993988;28;20177;-69
2022/12/18 05:38:36;;;;;;;20.73;11.10;;;-5.60;99.90;;;;;;4998942;28;20263;-69
2022/12/18 05:41:01;;;;;;;22.60;12.05;;;-5.60;99.90;;;;;;4992827;28;20184;-68
2022/12/18 05:43:27;;;;;;;20.53;12.13;;;-5.50;99.90;;;;;;4997636;28;20185;-69
2022/12/18 05:45:54;;;;;;;33.63;9.63;;;-5.60;99.90;;;;;;5000117;28;20602;-69
2022/12/18 05:48:20;;;;;;;13.65;8.07;;;-5.70;99.90;;;;;;4992367;28;20412;-69
2022/12/18 05:50:48;;;;;;;16.30;11.07;;;-5.80;99.90;;;;;;4992350;28;20173;-68
2022/12/18 05:53:16;;;;;;;16.88;10.02;;;-6.00;99.90;;;;;;4992183;28;20193;-69
2022/12/18 05:55:42;;;;;;;20.00;8.50;;;-5.90;99.90;;;;;;4992218;28;20188;-68
2022/12/18 05:58:10;;;;;;;15.50;10.05;;;-5.90;99.90;;;;;;4994145;28;20232;-68
2022/12/18 06:00:40;;;;;;;25.67;12.20;;;-5.90;99.90;;;;;;4997944;28;20200;-68
2022/12/18 06:03:08;;;;;;;25.85;10.23;;;-5.90;99.90;;;;;;4992702;28;20513;-68
2022/12/18 06:05:41;;;;;;;32.00;10.68;;;-5.90;99.90;;;;;;4992690;28;20288;-69
2022/12/18 06:08:07;;;;;;;22.20;12.85;;;-5.80;99.90;;;;;;4992003;28;20656;-69
2022/12/18 06:10:33;;;;;;;30.40;12.87;;;-5.80;99.90;;;;;;4991830;28;20308;-69
2022/12/18 06:12:59;;;;;;;15.37;10.93;;;-5.80;99.90;;;;;;4993688;28;20738;-68
2022/12/18 06:15:24;;;;;;;22.30;11.57;;;-5.70;99.90;;;;;;5044293;23;20489;-68
2022/12/18 06:17:50;;;;;;;28.27;9.27;;;-5.60;99.90;;;;;;5023900;28;20774;-67
2022/12/18 06:20:15;;;;;;;26.07;11.83;;;-5.60;99.90;;;;;;5030496;28;20176;-67
2022/12/18 06:22:41;;;;;;;20.83;10.10;;;-5.50;99.90;;;;;;5031358;28;20532;-68
2022/12/18 06:25:07;;;;;;;35.63;11.13;;;-5.50;99.90;;;;;;5019606;28;20299;-68
2022/12/18 06:27:33;;;;;;;20.15;9.43;;;-5.50;99.90;;;;;;5025379;28;20175;-68
2022/12/18 06:29:59;;;;;;;20.20;9.70;;;-5.60;99.90;;;;;;5019551;28;20282;-69
2022/12/18 06:32:25;;;;;;;19.83;9.13;;;-5.60;99.90;;;;;;5027775;28;20411;-69
2022/12/18 06:34:50;;;;;;;19.77;9.87;;;-5.60;99.90;;;;;;5020483;28;20200;-69
2022/12/18 06:37:16;;;;;;;24.97;13.80;;;-5.60;99.90;;;;;;5019693;28;20553;-69
2022/12/18 06:39:41;;;;;;;20.60;10.13;;;-5.60;99.90;;;;;;5025578;28;20187;-68
2022/12/18 06:42:07;;;;;;;31.60;12.00;;;-5.60;99.90;;;;;;5013010;28;20173;-67
2022/12/18 06:44:33;;;;;;;22.27;13.03;;;-5.60;99.90;;;;;;5025190;28;20203;-68
2022/12/18 06:46:58;;;;;;;23.87;11.00;;;-5.60;99.90;;;;;;5018914;28;20176;-70
2022/12/18 06:49:24;;;;;;;20.63;11.50;;;-5.50;99.90;;;;;;5012512;28;20323;-69
2022/12/18 06:51:49;;;;;;;21.73;10.57;;;-5.50;99.90;;;;;;5022630;28;20545;-67
2022/12/18 06:54:15;;;;;;;23.50;9.80;;;-5.50;99.90;;;;;;5015393;28;20176;-68
2022/12/18 06:56:40;;;;;;;18.17;10.80;;;-5.60;99.90;;;;;;5024386;28;20238;-68
2022/12/18 06:59:06;;;;;;;24.03;12.37;;;-5.60;99.90;;;;;;5018658;28;20184;-70
2022/12/18 07:01:31;;;;;;;30.30;11.57;;;-5.60;99.90;;;;;;5026967;28;20179;-69
2022/12/18 07:03:57;;;;;;;20.17;13.23;;;-5.50;99.90;;;;;;5016256;28;20193;-68
2022/12/18 07:06:25;;;;;;;30.87;13.80;;;-5.50;99.90;;;;;;5020953;28;20204;-69
2022/12/18 07:08:52;;;;;;;19.98;10.90;;;-5.40;99.90;;;;;;5024841;28;20771;-68
2022/12/18 07:11:18;;;;;;;21.38;12.55;;;-5.40;99.90;;;;;;5019521;28;20188;-71
2022/12/18 07:13:45;;;;;;;24.13;11.00;;;-5.40;99.90;;;;;;5023957;28;20263;-69
2022/12/18 07:16:16;;;;;;;31.20;11.25;;;-5.40;99.90;;;;;;5015020;28;20555;-68
2022/12/18 07:18:42;;;;;;;22.45;11.23;;;-5.40;99.90;;;;;;5026436;28;20238;-68
2022/12/18 07:21:11;;;;;;;29.93;13.10;;;-5.30;99.90;;;;;;5018937;28;20248;-69
2022/12/18 07:23:37;;;;;;;28.52;12.27;;;-5.40;99.90;;;;;;5021898;28;20418;-68
2022/12/18 07:26:11;;;;;;;17.30;10.77;;;-5.30;99.90;;;;;;5023004;28;20238;-68
2022/12/18 07:28:38;;;;;;;25.15;12.73;;;-5.30;99.90;;;;;;5021624;28;20171;-68
2022/12/18 07:31:13;;;;;;;16.20;10.20;;;-5.40;99.90;;;;;;5023512;28;20352;-69
2022/12/18 07:33:38;;;;;;;23.23;12.65;;;-5.30;99.90;;;;;;5016844;28;20174;-68
2022/12/18 07:36:06;;;;;;;27.87;12.70;;;-5.30;99.90;;;;;;5014281;28;20207;-69
2022/12/18 07:38:33;;;;;;;16.98;10.90;;;-5.50;99.90;;;;;;5016803;28;20181;-69
2022/12/18 07:41:03;;;;;;;28.00;13.70;;;-5.40;99.90;;;;;;5022155;28;20262;-69
2022/12/18 07:43:29;;;;;;;19.65;10.35;;;-5.40;99.90;;;;;;5020642;28;20415;-69
2022/12/18 07:45:55;;;;;;;25.07;12.93;;;-5.40;99.90;;;;;;5016075;28;20203;-69
2022/12/18 07:48:20;;;;;;;16.80;9.67;;;-5.50;99.90;;;;;;5021581;28;20673;-70
2022/12/18 07:50:46;;;;;;;30.33;10.23;;;-5.60;99.90;;;;;;5022355;28;20215;-68
2022/12/18 07:53:11;;;;;;;21.93;12.23;;;-5.50;99.90;;;;;;5021704;28;20183;-68
2022/12/18 07:55:37;;;;;;;20.97;11.13;;;-5.50;99.90;;;;;;5024607;28;20195;-69
2022/12/18 07:58:03;;;;;;;20.97;12.47;;;-5.50;99.90;;;;;;5025268;28;20584;-68
2022/12/18 08:00:30;;;;;;;29.27;10.32;;;-5.50;99.90;;;;;;5019768;28;20405;-68
2022/12/18 08:02:56;;;;;;;29.63;14.35;;;-5.40;99.90;;;;;;5025780;28;20523;-68
2022/12/18 08:05:22;;;;;;;25.13;13.23;;;-5.30;99.90;;;;;;5024933;28;20203;-67
2022/12/18 08:07:47;;;;;;;34.50;11.50;;;-5.40;99.90;;;;;;5020169;28;20230;-68
2022/12/18 08:10:13;;;;;;;24.73;12.60;;;-5.40;99.90;;;;;;5023425;28;20180;-68
2022/12/18 08:12:39;;;;;;;19.80;11.70;;;-5.40;99.90;;;;;;5024818;28;20541;-68
2022/12/18 08:15:05;;;;;;;25.70;10.37;;;-5.50;99.90;;;;;;5025080;28;20312;-69
2022/12/18 08:17:31;;;;;;;26.42;13.80;;;-5.30;99.90;;;;;;5023403;28;20172;-69
2022/12/18 08:19:57;;;;;;;29.83;14.97;;;-5.00;99.90;;;;;;5025457;28;20643;-68
2022/12/18 08:22:23;;;;;;;26.83;10.53;;;-5.00;99.90;;;;;;5025373;28;20695;-68
2022/12/18 08:24:48;;;;;;;18.67;10.40;;;-4.90;99.90;;;;;;5018799;28;20214;-68
2022/12/18 08:27:14;;;;;;;21.07;11.17;;;-4.80;99.90;;;;;;5025348;28;20450;-69
2022/12/18 08:29:39;;;;;;;23.30;11.03;;;-5.00;99.90;;;;;;5024342;28;20411;-69
2022/12/18 08:32:05;;;;;;;28.60;11.80;;;-5.10;99.90;;;;;;5022221;28;20702;-68
2022/12/18 08:34:30;;;;;;;23.03;11.40;;;-5.30;99.90;;;;;;5021276;28;20295;-68
2022/12/18 08:36:56;;;;;;;27.60;13.43;;;-5.30;99.90;;;;;;5018975;28;20278;-68
2022/12/18 08:39:21;;;;;;;21.07;10.20;;;-5.30;99.90;;;;;;5019400;28;20179;-69
2022/12/18 08:44:37;;;;;;;26.97;13.13;;;-5.30;99.90;;;;;;5024142;28;20282;-68
2022/12/18 08:44:38;;;;;;;21.95;10.30;;;-5.20;99.90;;;;;;5021497;28;20565;-68
2022/12/18 08:47:05;;;;;;;25.42;10.75;;;-5.20;99.90;;;;;;5027313;28;20254;-67
2022/12/18 08:49:31;;;;;;;22.40;12.23;;;-5.10;99.90;;;;;;5022193;28;20685;-70
2022/12/18 08:51:57;;;;;;;18.00;8.37;;;-5.00;99.90;;;;;;5021403;28;20195;-70
2022/12/18 08:54:23;;;;;;;21.13;11.40;;;-5.00;99.90;;;;;;5025476;28;20457;-69
2022/12/18 08:56:49;;;;;;;34.43;13.70;;;-4.90;99.90;;;;;;5017687;28;20176;-70
2022/12/18 08:59:16;;;;;;;15.77;11.37;;;-4.80;99.90;;;;;;5028636;28;20473;-70
2022/12/18 09:01:42;;;;;;;20.60;12.33;;;-4.80;99.90;;;;;;5016138;28;20427;-69
2022/12/18 09:04:09;;;;;;;20.17;12.90;;;-4.70;99.90;;;;;;5026960;28;20512;-69
2022/12/18 09:06:34;;;;;;;16.83;9.63;;;-4.70;99.90;;;;;;5021095;28;20411;-70
2022/12/18 09:09:00;;;;;;;22.73;10.37;;;-4.70;99.90;;;;;;5015417;28;20499;-70
2022/12/18 09:11:28;;;;;;;16.37;11.70;;;-4.60;99.90;;;;;;5025226;28;20187;-70
2022/12/18 09:13:54;;;;;;;24.03;10.50;;;-4.70;99.90;;;;;;5012634;28;20280;-69
2022/12/18 09:16:21;;;;;;;21.00;12.07;;;-4.60;99.90;;;;;;5023319;28;20469;-69
2022/12/18 09:18:47;;;;;;;30.92;10.43;;;-4.50;99.90;;;;;;5020653;28;20438;-69
2022/12/18 09:21:20;;;;;;;19.60;12.83;;;-4.50;99.90;;;;;;5011493;28;20267;-69
2022/12/18 09:23:50;;;;;;;26.57;11.43;;;-4.40;99.90;;;;;;5012165;28;20415;-68
2022/12/18 09:26:16;;;;;;;18.37;11.37;;;-4.40;99.90;;;;;;5021554;28;20423;-68
2022/12/18 09:28:42;;;;;;;27.07;10.30;;;-4.40;99.90;;;;;;5023324;28;20497;-68
2022/12/18 09:31:11;;;;;;;15.03;9.27;;;-4.40;99.90;;;;;;5024341;28;20176;-69
2022/12/18 09:33:36;;;;;;;28.67;11.87;;;-4.20;99.90;;;;;;5017617;28;20419;-69
2022/12/18 09:36:06;;;;;;;20.07;10.50;;;-4.50;99.90;;;;;;5023004;28;20434;-69
2022/12/18 09:38:33;;;;;;;23.63;9.43;;;-4.30;99.90;;;;;;5021133;28;20415;-69
2022/12/18 09:41:33;;;;;;;14.50;8.67;;;-4.40;99.90;;;;;;5023242;28;20791;-69
2022/12/18 09:44:14;;;;;;;23.63;10.93;;;-4.40;99.90;;;;;;5016474;28;20446;-69
2022/12/18 09:46:45;;;;;;;27.57;11.30;;;-4.30;99.90;;;;;;5022520;28;20924;-68
2022/12/18 09:49:18;;;;;;;30.17;13.47;;;-4.20;99.90;;;;;;5023075;28;20425;-69
2022/12/18 09:51:58;;;;;;;17.13;8.27;;;-4.20;99.90;;;;;;5017039;28;20518;-69
2022/12/18 09:54:35;;;;;;;15.10;8.90;;;-4.10;99.90;;;;;;5026179;28;20740;-69
2022/12/18 09:57:01;;;;;;;40.33;16.27;;;-4.00;99.90;;;;;;4998574;28;20451;-70
2022/12/18 09:59:35;;;;;;;24.67;10.70;;;-4.10;99.90;;;;;;5023527;28;20449;-70
2022/12/18 10:02:13;;;;;;;17.23;11.20;;;-4.10;99.90;;;;;;5019875;28;20179;-69
2022/12/18 10:04:39;;;;;;;22.90;8.90;;;-4.10;99.90;;;;;;5027750;28;20463;-68
2022/12/18 10:07:21;;;;;;;20.00;9.73;;;-3.90;99.90;;;;;;5019344;28;20470;-69
2022/12/18 10:10:23;;;;;;;20.57;11.20;;;-3.90;99.90;;;;;;5022632;28;20178;-69
2022/12/18 10:13:01;;;;;;;19.73;12.27;;;-3.90;99.90;;;;;;4956040;28;20487;-69
2022/12/18 10:16:03;;;;;;;16.10;7.80;;;-3.70;99.90;;;;;;5020016;28;20465;-69
2022/12/18 10:18:35;;;;;;;19.13;11.30;;;-3.60;99.90;;;;;;5020794;28;20406;-69
2022/12/18 10:21:10;;;;;;;16.90;8.07;;;-3.60;99.90;;;;;;5019280;28;20461;-69
2022/12/18 10:23:58;;;;;;;24.13;10.87;;;-3.50;99.90;;;;;;5015877;28;20439;-69
2022/12/18 10:26:24;;;;;;;17.10;8.30;;;-3.70;99.90;;;;;;5009932;28;20442;-68
2022/12/18 10:28:53;;;;;;;20.50;10.90;;;-3.70;99.90;;;;;;5022888;28;20745;-68
2022/12/18 10:31:21;;;;;;;21.70;11.10;;;-3.60;99.90;;;;;;5014988;28;20442;-69
2022/12/18 10:33:47;;;;;;;18.77;8.83;;;-3.70;99.90;;;;;;5019884;28;20525;-69
2022/12/18 10:36:13;;;;;;;24.23;11.40;;;-3.70;99.90;;;;;;5017305;28;20427;-69
2022/12/18 10:38:39;;;;;;;10.67;7.73;;;-3.60;99.90;;;;;;5023540;28;20476;-69
2022/12/18 10:41:25;;;;;;;14.07;8.27;;;-3.50;99.90;;;;;;5017498;28;20180;-71
2022/12/18 10:44:12;;;;;;;18.90;9.73;;;-3.50;99.90;;;;;;5009699;28;20434;-69
2022/12/18 10:46:38;;;;;;;16.70;8.57;;;-3.60;99.90;;;;;;5020857;28;20499;-70
2022/12/18 10:49:04;;;;;;;21.67;12.00;;;-3.50;99.90;;;;;;5023934;28;20852;-70
2022/12/18 10:51:33;;;;;;;14.87;9.20;;;-3.40;99.90;;;;;;5002471;28;20425;-69
2022/12/18 10:54:17;;;;;;;21.37;10.00;;;-3.30;99.90;;;;;;5024670;28;20421;-70
2022/12/18 10:56:42;;;;;;;22.77;10.90;;;-3.20;99.90;;;;;;5008549;28;20417;-71
2022/12/18 10:59:11;;;;;;;22.70;8.83;;;-3.20;99.90;;;;;;5018917;28;20419;-68
2022/12/18 11:01:55;;;;;;;18.00;10.13;;;-3.30;99.90;;;;;;5022769;28;20419;-70
2022/12/18 11:04:29;;;;;;;21.50;8.37;;;-3.40;99.90;;;;;;5016375;28;20462;-69
2022/12/18 11:07:06;;;;;;;15.97;8.40;;;-3.30;99.90;;;;;;5021796;28;20515;-69
2022/12/18 11:09:34;;;;;;;18.77;12.37;;;-3.20;99.90;;;;;;5019379;28;20498;-68
2022/12/18 11:12:24;;;;;;;32.80;13.97;;;-3.00;99.90;;;;;;5023868;28;20412;-68
2022/12/18 11:15:15;;;;;;;35.53;10.67;;;-3.20;99.90;;;;;;5005202;28;20468;-69
2022/12/18 11:17:41;;;;;;;22.07;11.90;;;-3.30;99.90;;;;;;5011520;28;20422;-69
2022/12/18 11:20:32;;;;;;;17.50;8.33;;;-3.30;99.90;;;;;;5017658;28;20440;-69
2022/12/18 11:23:03;;;;;;;14.70;9.50;;;-3.40;99.90;;;;;;5012583;28;20419;-70
2022/12/18 11:25:31;;;;;;;23.60;10.10;;;-3.30;99.90;;;;;;5024267;28;20458;-70
2022/12/18 11:28:02;;;;;;;21.00;10.17;;;-3.30;99.90;;;;;;5012495;28;20412;-68
2022/12/18 11:30:36;;;;;;;19.07;10.40;;;-3.30;99.90;;;;;;5028177;28;20402;-68
2022/12/18 11:33:06;;;;;;;16.27;8.30;;;-3.30;99.90;;;;;;5019296;28;20907;-68
2022/12/18 11:35:32;;;;;;;22.70;11.83;;;-3.30;99.90;;;;;;5015857;28;20525;-70
2022/12/18 11:38:11;;;;;;;20.60;11.30;;;-3.30;99.90;;;;;;5026166;28;20918;-70
2022/12/18 11:40:41;;;;;;;17.60;9.23;;;-3.20;99.90;;;;;;5024876;28;20237;-68
2022/12/18 11:43:36;;;;;;;19.37;11.07;;;-3.20;99.90;;;;;;5023303;28;20411;-68
2022/12/18 11:46:28;;;;;;;22.97;11.33;;;-3.30;99.90;;;;;;5002484;28;20527;-69
2022/12/18 11:49:22;;;;;;;15.60;9.50;;;-3.30;99.90;;;;;;5017510;28;20433;-68
2022/12/18 11:51:59;;;;;;;19.03;8.87;;;-3.40;99.90;;;;;;5001738;28;20434;-69
2022/12/18 11:54:24;;;;;;;25.20;9.43;;;-3.30;99.90;;;;;;5028373;28;20455;-68
2022/12/18 11:57:04;;;;;;;19.27;9.73;;;-3.30;99.90;;;;;;5019100;28;20419;-69
2022/12/18 11:59:53;;;;;;;15.17;7.03;;;-3.30;99.90;;;;;;5027558;28;20182;-68
2022/12/18 12:02:42;;;;;;;16.00;7.20;;;-3.40;99.90;;;;;;5022368;28;20818;-68
2022/12/18 12:05:45;;;;;;;18.40;7.60;;;-3.40;99.90;;;;;;5025400;28;20969;-68
2022/12/18 12:08:19;;;;;;;13.20;7.57;;;-3.40;99.90;;;;;;5020838;28;20923;-68
2022/12/18 12:10:50;;;;;;;15.20;9.50;;;-3.50;99.90;;;;;;5023452;28;20398;-68
2022/12/18 12:13:30;;;;;;;20.57;8.37;;;-3.50;99.90;;;;;;5027062;28;20556;-68
2022/12/18 12:16:15;;;;;;;20.40;9.00;;;-3.60;99.90;;;;;;5019225;28;20926;-67
2022/12/18 12:18:53;;;;;;;15.70;7.07;;;-3.40;99.90;;;;;;5053323;22;20466;-66
2022/12/18 12:21:41;;;;;;;24.00;7.60;;;-3.50;99.90;;;;;;5029893;28;20970;-66
2022/12/18 12:24:28;;;;;;;20.47;10.67;;;-3.40;99.90;;;;;;5025925;28;20451;-66
2022/12/18 12:27:20;;;;;;;18.43;8.37;;;-3.40;99.90;;;;;;5033066;28;20782;-66
2022/12/18 12:30:13;;;;;;;16.60;10.27;;;-3.40;99.90;;;;;;5021953;28;20461;-66
2022/12/18 12:32:47;;;;;;;21.90;10.03;;;-3.50;99.90;;;;;;5014288;28;20419;-66
2022/12/18 12:35:38;;;;;;;18.17;7.40;;;-3.40;99.90;;;;;;5013105;28;20423;-66
2022/12/18 12:38:35;;;;;;;13.13;9.20;;;-3.30;99.90;;;;;;5008324;28;20782;-67
2022/12/18 12:44:01;;;;;;;19.80;9.90;;;-3.40;99.90;;;;;;4981969;28;20400;-66
2022/12/18 12:46:29;;;;;;;19.07;9.70;;;-3.40;99.90;;;;;;5012733;28;20416;-67
2022/12/18 12:48:58;;;;;;;21.33;9.10;;;-3.40;99.90;;;;;;5019523;28;20522;-67
2022/12/18 12:51:35;;;;;;;22.80;9.37;;;-3.30;99.90;;;;;;5012622;28;20419;-67